createdAt,value
2023-04-20T00:02:27.510Z,2.25
2023-04-20T00:04:56.016Z,2.50
2023-04-20T00:07:24.814Z,2.70
2023-04-20T00:09:53.124Z,2.70
2023-04-20T00:12:21.406Z,2.40
2023-04-20T00:14:49.770Z,2.33
2023-04-20T00:17:18.074Z,2.90
2023-04-20T00:19:47.742Z,2.73
2023-04-20T00:22:16.114Z,2.50
2023-04-20T00:24:44.419Z,2.43
2023-04-20T00:27:12.796Z,2.90
2023-04-20T00:29:41.016Z,2.50
2023-04-20T00:32:09.367Z,2.60
2023-04-20T00:34:37.657Z,2.70
2023-04-20T00:37:07.262Z,2.70
2023-04-20T00:39:35.709Z,2.77
2023-04-20T00:42:09.238Z,3.00
2023-04-20T00:44:37.610Z,3.10
2023-04-20T00:47:06.050Z,2.87
2023-04-20T00:49:35.108Z,2.93
2023-04-20T00:52:03.527Z,3.10
2023-04-20T00:54:34.325Z,3.07
2023-04-20T00:57:03.256Z,2.70
2023-04-20T00:59:31.864Z,2.90
2023-04-20T01:02:00.329Z,3.07
2023-04-20T01:04:29.608Z,2.83
2023-04-20T01:06:59.934Z,2.90
2023-04-20T01:09:28.552Z,3.27
2023-04-20T01:11:58.224Z,2.83
2023-04-20T01:14:26.715Z,2.60
2023-04-20T01:16:55.551Z,2.60
2023-04-20T01:19:24.137Z,3.07
2023-04-20T01:21:52.692Z,3.27
2023-04-20T01:24:22.427Z,2.90
2023-04-20T01:26:50.822Z,3.00
2023-04-20T01:29:19.292Z,2.90
2023-04-20T01:31:48.041Z,2.77
2023-04-20T01:34:17.506Z,3.20
2023-04-20T01:36:46.756Z,3.30
2023-04-20T01:39:15.265Z,3.13
2023-04-20T01:41:45.674Z,2.90
2023-04-20T01:44:14.270Z,3.00
2023-04-20T01:46:42.948Z,2.90
2023-04-20T01:49:11.533Z,3.23
2023-04-20T01:51:39.832Z,3.27
2023-04-20T01:54:08.117Z,3.30
2023-04-20T01:56:36.444Z,3.30
2023-04-20T01:59:06.165Z,3.37
2023-04-20T02:01:35.246Z,3.60
2023-04-20T02:04:03.998Z,3.20
2023-04-20T02:06:33.037Z,3.70
2023-04-20T02:09:01.955Z,3.40
2023-04-20T02:11:30.272Z,3.30
2023-04-20T02:13:58.707Z,3.90
2023-04-20T02:16:29.119Z,3.70
2023-04-20T02:18:57.917Z,4.33
2023-04-20T02:21:26.290Z,2.90
2023-04-20T02:23:54.743Z,3.33
2023-04-20T02:26:23.642Z,3.67
2023-04-20T02:28:52.073Z,3.70
2023-04-20T02:31:20.777Z,3.57
2023-04-20T02:33:51.380Z,3.83
2023-04-20T02:36:20.664Z,3.50
2023-04-20T02:38:48.995Z,3.60
2023-04-20T02:41:17.542Z,3.53
2023-04-20T02:43:46.091Z,3.60
2023-04-20T02:46:14.409Z,3.60
2023-04-20T02:48:43.026Z,4.30
2023-04-20T02:51:13.432Z,3.47
2023-04-20T02:53:45.636Z,3.97
2023-04-20T02:56:21.621Z,3.33
2023-04-20T02:58:56.118Z,4.67
2023-04-20T03:01:24.758Z,3.90
2023-04-20T03:04:01.974Z,4.37
2023-04-20T03:06:33.653Z,4.03
2023-04-20T03:09:03.936Z,3.80
2023-04-20T03:11:55.943Z,3.97
2023-04-20T03:14:41.193Z,4.10
2023-04-20T03:17:10.043Z,4.27
2023-04-20T03:19:38.532Z,3.83
2023-04-20T03:22:08.529Z,3.83
2023-04-20T03:24:37.933Z,4.03
2023-04-20T03:27:16.248Z,4.10
2023-04-20T03:30:01.315Z,4.33
2023-04-20T03:32:32.732Z,3.80
2023-04-20T03:35:01.975Z,4.17
2023-04-20T03:37:32.017Z,4.23
2023-04-20T03:40:00.345Z,4.50
2023-04-20T03:42:30.194Z,4.40
2023-04-20T03:44:58.631Z,4.10
2023-04-20T03:47:27.703Z,4.80
2023-04-20T03:49:56.102Z,4.27
2023-04-20T03:52:24.488Z,4.43
2023-04-20T03:54:54.220Z,4.80
2023-04-20T03:57:22.662Z,5.83
2023-04-20T03:59:51.098Z,4.23
2023-04-20T04:02:23.627Z,4.73
2023-04-20T04:04:53.536Z,5.57
2023-04-20T04:07:23.473Z,4.83
2023-04-20T04:09:53.342Z,4.80
2023-04-20T04:12:21.861Z,5.20
2023-04-20T04:14:51.264Z,5.57
2023-04-20T04:17:22.041Z,5.50
2023-04-20T04:19:50.551Z,5.07
2023-04-20T04:22:18.878Z,5.07
2023-04-20T04:25:10.370Z,5.50
2023-04-20T04:27:39.784Z,4.93
2023-04-20T04:30:11.065Z,5.67
2023-04-20T04:32:39.790Z,5.33
2023-04-20T04:35:10.361Z,5.93
2023-04-20T04:37:38.882Z,6.40
2023-04-20T04:40:12.873Z,5.50
2023-04-20T04:42:41.554Z,6.50
2023-04-20T04:45:13.551Z,6.20
2023-04-20T04:47:43.918Z,6.10
2023-04-20T04:50:13.202Z,6.00
2023-04-20T04:52:41.602Z,5.97
2023-04-20T04:55:11.631Z,5.90
2023-04-20T04:57:40.016Z,6.20
2023-04-20T05:00:11.946Z,6.40
2023-04-20T05:02:40.836Z,6.50
2023-04-20T05:05:10.309Z,6.17
2023-04-20T05:07:39.966Z,6.27
2023-04-20T05:10:11.276Z,6.43
2023-04-20T05:12:40.510Z,6.93
2023-04-20T05:15:10.237Z,6.40
2023-04-20T05:17:38.675Z,6.80
2023-04-20T05:20:10.565Z,6.10
2023-04-20T05:22:39.191Z,6.73
2023-04-20T05:25:12.632Z,6.80
2023-04-20T05:27:42.194Z,6.93
2023-04-20T05:30:20.577Z,6.37
2023-04-20T05:32:52.339Z,7.20
2023-04-20T05:35:21.407Z,6.87
2023-04-20T05:37:50.140Z,6.57
2023-04-20T05:40:19.802Z,5.90
2023-04-20T05:42:48.257Z,6.90
2023-04-20T05:45:16.888Z,7.37
2023-04-20T05:47:54.229Z,7.60
2023-04-20T05:50:23.374Z,7.47
2023-04-20T05:52:52.000Z,6.57
2023-04-20T05:55:22.980Z,7.00
2023-04-20T05:57:53.256Z,8.37
2023-04-20T06:00:25.772Z,7.37
2023-04-20T06:02:55.513Z,7.03
2023-04-20T06:05:24.496Z,8.00
2023-04-20T06:07:53.038Z,8.20
2023-04-20T06:10:23.000Z,8.27
2023-04-20T06:12:51.372Z,7.63
2023-04-20T06:15:19.901Z,7.93
2023-04-20T06:17:48.172Z,7.77
2023-04-20T06:20:16.783Z,8.27
2023-04-20T06:22:45.631Z,7.73
2023-04-20T06:25:15.278Z,7.97
2023-04-20T06:27:45.178Z,7.87
2023-04-20T06:30:16.190Z,8.27
2023-04-20T06:32:44.582Z,8.80
2023-04-20T06:35:13.007Z,8.30
2023-04-20T06:37:41.298Z,8.57
2023-04-20T06:40:10.137Z,8.80
2023-04-20T06:42:38.458Z,8.00
2023-04-20T06:45:10.012Z,8.40
2023-04-20T06:47:38.670Z,8.57
2023-04-20T06:50:09.222Z,8.63
2023-04-20T06:52:38.600Z,8.23
2023-04-20T06:55:08.006Z,9.13
2023-04-20T06:57:37.220Z,8.07
2023-04-20T07:00:10.025Z,9.00
2023-04-20T07:02:46.178Z,8.43
2023-04-20T07:05:15.415Z,7.53
2023-04-20T07:07:44.524Z,8.20
2023-04-20T07:10:15.527Z,8.60
2023-04-20T07:12:45.444Z,8.43
2023-04-20T07:15:15.270Z,8.47
2023-04-20T07:17:43.657Z,8.30
2023-04-20T07:20:12.907Z,8.83
2023-04-20T07:22:41.625Z,8.83
2023-04-20T07:25:11.163Z,9.20
2023-04-20T07:27:41.755Z,9.20
2023-04-20T07:30:11.957Z,9.57
2023-04-20T07:32:42.343Z,10.20
2023-04-20T07:35:11.734Z,9.07
2023-04-20T07:37:40.702Z,8.93
2023-04-20T07:40:11.068Z,7.97
2023-04-20T07:42:39.401Z,8.97
2023-04-20T07:45:09.100Z,9.73
2023-04-20T07:47:38.413Z,11.07
2023-04-20T07:50:09.688Z,10.43
2023-04-20T07:52:38.028Z,9.97
2023-04-20T07:55:08.459Z,10.30
2023-04-20T07:57:37.140Z,9.60
2023-04-20T08:00:08.404Z,10.33
2023-04-20T08:02:41.510Z,9.87
2023-04-20T08:05:11.890Z,10.67
2023-04-20T08:07:40.712Z,10.17
2023-04-20T08:10:10.796Z,10.77
2023-04-20T08:12:40.656Z,11.40
2023-04-20T08:15:11.098Z,11.27
2023-04-20T08:17:39.445Z,10.83
2023-04-20T08:20:10.499Z,10.13
2023-04-20T08:22:41.058Z,10.80
2023-04-20T08:25:10.337Z,10.13
2023-04-20T08:27:38.884Z,10.20
2023-04-20T08:30:08.980Z,10.40
2023-04-20T08:32:37.697Z,9.10
2023-04-20T08:35:07.360Z,10.77
2023-04-20T08:37:35.735Z,11.07
2023-04-20T08:40:06.774Z,9.67
2023-04-20T08:42:35.258Z,10.80
2023-04-20T08:45:03.591Z,10.47
2023-04-20T08:47:35.890Z,10.70
2023-04-20T08:50:06.135Z,11.00
2023-04-20T08:52:35.641Z,10.80
2023-04-20T08:55:06.357Z,10.43
2023-04-20T08:57:34.709Z,10.53
2023-04-20T09:00:08.160Z,10.73
2023-04-20T09:02:36.659Z,10.77
2023-04-20T09:05:06.768Z,10.23
2023-04-20T09:07:35.302Z,9.33
2023-04-20T09:10:05.833Z,9.97
2023-04-20T09:12:42.879Z,10.13
2023-04-20T09:15:12.466Z,10.93
2023-04-20T09:17:41.889Z,11.00
2023-04-20T09:20:11.791Z,10.27
2023-04-20T09:22:40.250Z,11.60
2023-04-20T09:25:16.559Z,9.27
2023-04-20T09:27:44.913Z,11.40
2023-04-20T09:30:14.020Z,11.53
2023-04-20T09:32:42.464Z,9.70
2023-04-20T09:35:11.216Z,11.13
2023-04-20T09:37:49.266Z,10.73
2023-04-20T09:40:21.937Z,8.13
2023-04-20T09:42:51.899Z,10.73
2023-04-20T09:45:20.832Z,10.43
2023-04-20T09:47:49.936Z,10.07
2023-04-20T09:50:26.706Z,11.10
2023-04-20T09:52:58.759Z,9.80
2023-04-20T09:55:31.878Z,11.10
2023-04-20T09:58:03.517Z,10.80
2023-04-20T10:00:31.964Z,10.47
2023-04-20T10:03:00.832Z,11.20
2023-04-20T10:05:36.801Z,11.20
2023-04-20T10:08:05.351Z,11.63
2023-04-20T10:10:47.225Z,11.33
2023-04-20T10:13:16.934Z,11.83
2023-04-20T10:15:45.298Z,10.70
2023-04-20T10:18:19.360Z,10.73
2023-04-20T10:20:48.313Z,10.60
2023-04-20T10:23:19.483Z,10.37
2023-04-20T10:26:00.426Z,10.87
2023-04-20T10:28:40.934Z,11.07
2023-04-20T10:31:12.972Z,8.90
2023-04-20T10:33:52.197Z,9.27
2023-04-20T10:36:30.965Z,8.85
2023-04-20T10:39:01.450Z,9.20
2023-04-20T10:41:31.472Z,10.00
2023-04-20T10:44:08.865Z,9.50
2023-04-20T10:46:37.414Z,9.40
2023-04-20T10:49:06.681Z,9.50
2023-04-20T10:51:35.002Z,9.70
2023-04-20T10:54:06.176Z,7.73
2023-04-20T10:56:44.864Z,9.70
2023-04-20T10:59:15.264Z,10.13
2023-04-20T11:01:46.458Z,9.47
2023-04-20T11:04:18.398Z,10.10
2023-04-20T11:06:52.426Z,10.00
2023-04-20T11:09:23.452Z,9.98
2023-04-20T11:12:03.890Z,10.00
2023-04-20T11:14:33.562Z,10.13
2023-04-20T11:17:02.502Z,9.90
2023-04-20T11:19:34.247Z,9.47
2023-04-20T11:22:03.853Z,10.05
2023-04-20T11:24:34.621Z,10.27
2023-04-20T11:27:05.698Z,9.40
2023-04-20T11:29:37.839Z,10.23
2023-04-20T11:32:09.189Z,10.47
2023-04-20T11:34:39.997Z,10.97
2023-04-20T11:37:10.260Z,10.77
2023-04-20T11:39:40.205Z,10.07
2023-04-20T11:42:10.103Z,10.40
2023-04-20T11:44:41.212Z,10.85
2023-04-20T11:47:09.553Z,11.27
2023-04-20T11:49:37.901Z,10.20
2023-04-20T11:52:07.090Z,11.15
2023-04-20T11:54:35.556Z,10.15
2023-04-20T11:57:04.765Z,11.65
2023-04-20T11:59:34.543Z,11.80
2023-04-20T12:02:04.360Z,12.15
2023-04-20T12:04:34.727Z,12.17
2023-04-20T12:07:03.415Z,11.47
2023-04-20T12:09:36.008Z,12.35
2023-04-20T12:12:04.878Z,12.98
2023-04-20T12:14:34.745Z,12.02
2023-04-20T12:17:03.800Z,11.20
2023-04-20T12:19:32.618Z,12.52
2023-04-20T12:22:00.952Z,13.40
2023-04-20T12:24:29.346Z,12.60
2023-04-20T12:26:59.437Z,12.63
2023-04-20T12:29:27.928Z,12.97
2023-04-20T12:31:57.939Z,12.03
2023-04-20T12:34:26.616Z,13.17
2023-04-20T12:36:54.941Z,13.47
2023-04-20T12:39:23.383Z,13.45
2023-04-20T12:41:51.876Z,13.10
2023-04-20T12:44:20.458Z,13.52
2023-04-20T12:46:49.232Z,13.00
2023-04-20T12:49:19.237Z,13.52
2023-04-20T12:51:47.814Z,12.40
2023-04-20T12:54:16.488Z,14.07
2023-04-20T12:56:45.019Z,13.82
2023-04-20T12:59:14.239Z,13.52
2023-04-20T13:01:42.616Z,13.23
2023-04-20T13:04:11.267Z,13.25
2023-04-20T13:06:41.260Z,13.18
2023-04-20T13:09:09.889Z,13.67
2023-04-20T13:11:38.365Z,13.23
2023-04-20T13:14:06.821Z,13.98
2023-04-20T13:16:35.187Z,11.52
2023-04-20T13:19:04.161Z,11.63
2023-04-20T13:21:33.315Z,12.82
2023-04-20T13:24:03.078Z,11.95
2023-04-20T13:26:33.815Z,13.15
2023-04-20T13:29:02.302Z,12.70
2023-04-20T13:31:31.140Z,12.85
2023-04-20T13:33:59.634Z,12.88
2023-04-20T13:36:29.327Z,13.88
2023-04-20T13:38:57.867Z,13.95
2023-04-20T13:41:27.785Z,13.23
2023-04-20T13:43:59.019Z,12.73
2023-04-20T13:46:27.451Z,11.95
2023-04-20T13:48:55.935Z,13.45
2023-04-20T13:51:24.648Z,14.07
2023-04-20T13:53:53.029Z,13.45
2023-04-20T13:56:21.497Z,14.18
2023-04-20T13:58:51.258Z,15.05
2023-04-20T14:01:19.711Z,14.13
2023-04-20T14:03:48.244Z,13.57
2023-04-20T14:06:17.791Z,13.98
2023-04-20T14:08:46.245Z,14.10
2023-04-20T14:11:14.637Z,13.32
2023-04-20T14:13:44.172Z,13.93
2023-04-20T14:16:15.851Z,14.68
2023-04-20T14:18:44.271Z,14.07
2023-04-20T14:21:12.677Z,14.55
2023-04-20T14:23:41.031Z,14.80
2023-04-20T14:26:09.441Z,15.40
2023-04-20T14:28:37.857Z,14.00
2023-04-20T14:31:06.753Z,14.77
2023-04-20T14:33:36.768Z,14.98
2023-04-20T14:36:05.525Z,14.38
2023-04-20T14:38:33.850Z,14.73
2023-04-20T14:41:02.335Z,15.25
2023-04-20T14:43:32.473Z,15.38
2023-04-20T14:46:00.893Z,14.18
2023-04-20T14:48:29.589Z,14.45
2023-04-20T14:50:59.335Z,13.80
2023-04-20T14:53:27.969Z,13.77
2023-04-20T14:55:56.713Z,14.10
2023-04-20T14:58:25.099Z,13.52
2023-04-20T15:00:54.005Z,13.63
2023-04-20T15:03:22.618Z,13.32
2023-04-20T15:05:51.365Z,13.73
2023-04-20T15:08:21.254Z,14.18
2023-04-20T15:10:51.866Z,14.10
2023-04-20T15:13:20.188Z,12.93
2023-04-20T15:15:49.994Z,14.38
2023-04-20T15:18:20.182Z,13.57
2023-04-20T15:20:48.707Z,13.82
2023-04-20T15:23:17.158Z,12.57
2023-04-20T15:25:46.987Z,13.95
2023-04-20T15:28:15.427Z,14.20
2023-04-20T15:30:44.189Z,13.70
2023-04-20T15:33:12.608Z,13.45
2023-04-20T15:35:41.206Z,13.32
2023-04-20T15:38:09.741Z,13.15
2023-04-20T15:40:38.658Z,13.10
2023-04-20T15:43:08.549Z,13.00
2023-04-20T15:45:36.858Z,12.70
2023-04-20T15:48:06.234Z,12.90
2023-04-20T15:50:35.432Z,11.13
2023-04-20T15:53:04.341Z,12.25
2023-04-20T15:55:34.524Z,31.92
2023-04-20T15:58:03.113Z,15.73
2023-04-20T16:00:32.795Z,11.98
2023-04-20T16:03:02.017Z,11.00
2023-04-20T16:05:30.728Z,10.48
2023-04-20T16:07:59.080Z,11.13
2023-04-20T16:10:27.892Z,10.73
2023-04-20T16:12:56.180Z,9.57
2023-04-20T16:15:24.793Z,10.52
2023-04-20T16:17:54.844Z,10.30
2023-04-20T16:20:23.565Z,10.05
2023-04-20T16:22:52.216Z,9.85
2023-04-20T16:25:23.957Z,10.30
2023-04-20T16:27:52.689Z,8.93
2023-04-20T16:30:21.398Z,10.40
2023-04-20T16:32:49.926Z,10.63
2023-04-20T16:35:19.936Z,10.65
2023-04-20T16:37:48.450Z,9.77
2023-04-20T16:40:16.820Z,10.63
2023-04-20T16:42:45.333Z,10.73
2023-04-20T16:45:14.273Z,10.57
2023-04-20T16:47:42.749Z,11.20
2023-04-20T16:50:19.138Z,11.50
2023-04-20T16:52:50.860Z,11.55
2023-04-20T16:55:19.670Z,10.98
2023-04-20T16:57:47.958Z,11.20
2023-04-20T17:00:18.204Z,11.50
2023-04-20T17:02:46.713Z,10.55
2023-04-20T17:05:15.490Z,10.77
2023-04-20T17:07:43.852Z,10.65
2023-04-20T17:10:13.772Z,11.68
2023-04-20T17:12:42.461Z,10.85
2023-04-20T17:15:12.081Z,11.80
2023-04-20T17:17:40.455Z,11.57
2023-04-20T17:20:10.585Z,11.15
2023-04-20T17:22:39.018Z,11.57
2023-04-20T17:25:08.743Z,11.35
2023-04-20T17:27:38.698Z,11.25
2023-04-20T17:30:08.877Z,11.40
2023-04-20T17:32:37.330Z,11.30
2023-04-20T17:35:06.664Z,10.82
2023-04-20T17:37:36.317Z,11.00
2023-04-20T17:40:06.265Z,11.32
2023-04-20T17:42:34.623Z,11.10
2023-04-20T17:45:04.657Z,10.68
2023-04-20T17:47:33.221Z,10.82
2023-04-20T17:50:01.681Z,10.85
2023-04-20T17:52:30.032Z,11.35
2023-04-20T17:55:00.929Z,11.32
2023-04-20T17:57:30.333Z,11.13
2023-04-20T17:59:58.711Z,11.25
2023-04-20T18:02:28.619Z,11.63
2023-04-20T18:04:59.523Z,10.70
2023-04-20T18:07:28.972Z,10.63
2023-04-20T18:09:57.256Z,11.43
2023-04-20T18:12:25.526Z,12.75
2023-04-20T18:14:53.922Z,10.43
2023-04-20T18:17:22.742Z,11.75
2023-04-20T18:19:52.454Z,11.35
2023-04-20T18:22:20.863Z,11.43
2023-04-20T18:24:49.173Z,9.60
2023-04-20T18:27:17.885Z,10.63
2023-04-20T18:29:46.253Z,11.02
2023-04-20T18:32:16.359Z,10.30
2023-04-20T18:34:44.880Z,10.18
2023-04-20T18:37:15.185Z,10.57
2023-04-20T18:39:43.463Z,10.57
2023-04-20T18:42:11.734Z,10.95
2023-04-20T18:44:40.485Z,10.25
2023-04-20T18:47:08.879Z,11.73
2023-04-20T18:49:37.230Z,10.75
2023-04-20T18:52:05.928Z,10.43
2023-04-20T18:54:38.244Z,10.55
2023-04-20T18:57:07.446Z,10.57
2023-04-20T18:59:35.840Z,10.15
2023-04-20T19:02:04.309Z,11.38
2023-04-20T19:04:35.295Z,11.15
2023-04-20T19:07:03.559Z,10.57
2023-04-20T19:09:31.831Z,11.40
2023-04-20T19:12:01.426Z,11.20
2023-04-20T19:14:29.725Z,10.88
2023-04-20T19:16:58.086Z,10.45
2023-04-20T19:19:26.557Z,11.07
2023-04-20T19:21:54.834Z,11.35
2023-04-20T19:24:23.141Z,10.82
2023-04-20T19:26:51.537Z,11.13
2023-04-20T19:29:21.220Z,10.02
2023-04-20T19:31:49.597Z,10.90
2023-04-20T19:34:18.202Z,10.77
2023-04-20T19:36:46.770Z,10.85
2023-04-20T19:39:15.140Z,11.55
2023-04-20T19:41:43.448Z,11.85
2023-04-20T19:44:12.136Z,11.95
2023-04-20T19:46:43.407Z,11.57
2023-04-20T19:49:11.876Z,11.77
2023-04-20T19:51:45.332Z,12.25
2023-04-20T19:54:17.489Z,11.57
2023-04-20T19:56:46.098Z,11.13
2023-04-20T19:59:14.540Z,11.90
2023-04-20T20:01:44.247Z,11.35
2023-04-20T20:04:12.886Z,12.05
2023-04-20T20:06:43.936Z,11.45
2023-04-20T20:09:13.024Z,11.10
2023-04-20T20:11:42.052Z,11.30
2023-04-20T20:14:10.397Z,11.30
2023-04-20T20:16:38.714Z,12.02
2023-04-20T20:19:08.796Z,11.95
2023-04-20T20:21:37.193Z,13.30
2023-04-20T20:24:06.011Z,12.23
2023-04-20T20:26:34.376Z,11.93
2023-04-20T20:29:02.865Z,11.85
2023-04-20T20:31:31.276Z,12.73
2023-04-20T20:33:59.558Z,12.63
2023-04-20T20:36:31.886Z,11.60
2023-04-20T20:39:00.406Z,12.38
2023-04-20T20:41:30.427Z,12.40
2023-04-20T20:43:59.655Z,12.23
2023-04-20T20:46:28.036Z,12.17
2023-04-20T20:48:57.024Z,12.20
2023-04-20T20:51:28.022Z,12.50
2023-04-20T20:53:56.312Z,12.47
2023-04-20T20:56:24.724Z,12.83
2023-04-20T20:58:53.972Z,11.98
2023-04-20T21:01:22.683Z,13.47
2023-04-20T21:03:51.451Z,12.95
2023-04-20T21:06:19.835Z,13.00
2023-04-20T21:08:49.633Z,13.05
2023-04-20T21:11:17.855Z,13.43
2023-04-20T21:13:46.153Z,14.97
2023-04-20T21:16:14.451Z,13.80
2023-04-20T21:18:42.830Z,15.30
2023-04-20T21:21:13.549Z,13.73
2023-04-20T21:23:41.801Z,14.63
2023-04-20T21:26:11.428Z,15.50
2023-04-20T21:28:39.777Z,16.07
2023-04-20T21:31:08.059Z,17.03
2023-04-20T21:33:36.902Z,16.27
2023-04-20T21:36:05.848Z,16.47
2023-04-20T21:38:34.182Z,16.17
2023-04-20T21:41:02.648Z,17.13
2023-04-20T21:43:32.460Z,16.17
2023-04-20T21:46:00.777Z,15.27
2023-04-20T21:48:29.245Z,15.05
2023-04-20T21:50:57.633Z,16.03
2023-04-20T21:53:26.024Z,15.20
2023-04-20T21:55:54.393Z,15.73
2023-04-20T21:58:22.733Z,16.30
2023-04-20T22:00:52.648Z,15.07
2023-04-20T22:03:21.077Z,14.70
2023-04-20T22:05:49.605Z,14.63
2023-04-20T22:08:21.877Z,15.20
2023-04-20T22:10:51.059Z,15.47
2023-04-20T22:13:19.677Z,15.60
2023-04-20T22:15:48.540Z,13.70
2023-04-20T22:18:18.953Z,15.70
2023-04-20T22:20:47.444Z,15.37
2023-04-20T22:23:15.982Z,15.47
2023-04-20T22:25:44.587Z,15.00
2023-04-20T22:28:13.336Z,16.03
2023-04-20T22:30:42.487Z,16.53
2023-04-20T22:33:11.036Z,16.57
2023-04-20T22:35:40.704Z,15.53
2023-04-20T22:38:09.139Z,16.90
2023-04-20T22:40:38.690Z,17.27
2023-04-20T22:43:07.043Z,16.47
2023-04-20T22:45:35.345Z,17.13
2023-04-20T22:48:03.769Z,14.87
2023-04-20T22:50:32.101Z,17.40
2023-04-20T22:53:01.899Z,16.05
2023-04-20T22:55:30.206Z,17.48
2023-04-20T22:57:58.549Z,16.27
2023-04-20T23:00:26.883Z,16.70
2023-04-20T23:02:55.397Z,16.45
2023-04-20T23:05:24.050Z,16.03
2023-04-20T23:07:53.729Z,16.27
2023-04-20T23:10:28.355Z,16.63
2023-04-20T23:12:57.122Z,15.80
2023-04-20T23:15:25.485Z,16.87
2023-04-20T23:17:56.854Z,15.53
2023-04-20T23:20:26.204Z,15.80
2023-04-20T23:22:54.579Z,14.90
2023-04-20T23:25:24.331Z,14.30
2023-04-20T23:27:52.717Z,16.23
2023-04-20T23:30:21.299Z,14.90
2023-04-20T23:32:49.680Z,15.37
2023-04-20T23:35:18.866Z,16.00
2023-04-20T23:37:47.239Z,15.10
2023-04-20T23:40:15.669Z,15.10
2023-04-20T23:42:45.413Z,15.17
2023-04-20T23:45:13.858Z,14.57
2023-04-20T23:47:42.215Z,15.13
2023-04-20T23:50:11.195Z,14.43
2023-04-20T23:52:40.461Z,14.93
2023-04-20T23:55:10.400Z,14.33
2023-04-20T23:57:38.761Z,14.47
